createdAt,value
2023-12-12T00:00:09.300Z,36.22
2023-12-12T00:02:35.690Z,35.99
2023-12-12T00:05:02.059Z,35.95
2023-12-12T00:07:28.532Z,35.78
2023-12-12T00:09:54.981Z,36.10
2023-12-12T00:12:21.567Z,35.81
2023-12-12T00:14:47.956Z,36.09
2023-12-12T00:17:14.397Z,35.99
2023-12-12T00:19:41.586Z,36.12
2023-12-12T00:22:08.136Z,35.86
2023-12-12T00:24:34.532Z,35.93
2023-12-12T00:27:00.924Z,35.78
2023-12-12T00:29:27.283Z,35.86
2023-12-12T00:31:53.657Z,35.95
2023-12-12T00:34:20.137Z,35.82
2023-12-12T00:36:46.549Z,36.08
2023-12-12T00:39:12.922Z,36.17
2023-12-12T00:41:39.313Z,35.94
2023-12-12T00:44:05.717Z,35.87
2023-12-12T00:46:32.343Z,35.91
2023-12-12T00:48:58.935Z,36.23
2023-12-12T00:51:25.405Z,35.99
2023-12-12T00:53:51.800Z,35.92
2023-12-12T00:56:18.220Z,35.93
2023-12-12T00:58:44.621Z,36.08
2023-12-12T01:01:15.347Z,36.08
2023-12-12T01:03:42.080Z,36.24
2023-12-12T01:06:08.489Z,36.24
2023-12-12T01:08:34.859Z,36.19
2023-12-12T01:11:02.088Z,36.01
2023-12-12T01:13:28.515Z,35.98
2023-12-12T01:15:54.958Z,36.13
2023-12-12T01:18:21.456Z,36.13
2023-12-12T01:20:47.885Z,36.13
2023-12-12T01:23:14.574Z,36.25
2023-12-12T01:25:41.069Z,36.20
2023-12-12T01:28:07.543Z,35.97
2023-12-12T01:30:35.549Z,36.06
2023-12-12T01:33:03.080Z,36.04
2023-12-12T01:35:29.467Z,36.26
2023-12-12T01:37:55.843Z,36.25
2023-12-12T01:40:22.339Z,36.20
2023-12-12T01:42:48.752Z,36.42
2023-12-12T01:45:17.171Z,36.21
2023-12-12T01:47:44.178Z,36.28
2023-12-12T01:50:10.621Z,36.16
2023-12-12T01:52:37.141Z,36.41
2023-12-12T01:55:03.584Z,36.35
2023-12-12T01:57:30.352Z,36.13
2023-12-12T01:59:56.861Z,36.43
2023-12-12T02:02:23.245Z,36.43
2023-12-12T02:04:49.921Z,36.20
2023-12-12T02:07:17.002Z,36.38
2023-12-12T02:10:21.699Z,36.39
2023-12-12T02:12:48.039Z,36.41
2023-12-12T02:15:16.100Z,36.29
2023-12-12T02:17:42.454Z,36.41
2023-12-12T02:20:08.992Z,36.27
2023-12-12T02:22:35.400Z,36.19
2023-12-12T02:25:01.796Z,36.35
2023-12-12T02:27:28.234Z,36.39
2023-12-12T02:32:20.792Z,36.46
2023-12-12T02:34:47.412Z,36.22
2023-12-12T02:37:13.785Z,36.25
2023-12-12T02:39:40.145Z,36.43
2023-12-12T02:42:06.484Z,36.53
2023-12-12T02:44:32.841Z,36.37
2023-12-12T02:46:59.183Z,36.35
2023-12-12T02:49:25.620Z,36.38
2023-12-12T02:51:52.041Z,36.31
2023-12-12T02:54:18.396Z,36.55
2023-12-12T02:56:44.726Z,36.59
2023-12-12T02:59:11.084Z,36.55
2023-12-12T03:01:37.572Z,36.56
2023-12-12T03:04:04.142Z,36.39
2023-12-12T03:06:30.557Z,36.45
2023-12-12T03:08:56.887Z,36.12
2023-12-12T03:11:23.239Z,36.15
2023-12-12T03:13:49.573Z,36.35
2023-12-12T03:16:15.916Z,36.37
2023-12-12T03:18:42.320Z,36.22
2023-12-12T03:21:08.716Z,36.15
2023-12-12T03:23:35.079Z,36.19
2023-12-12T03:26:09.407Z,36.36
2023-12-12T03:28:36.790Z,36.30
2023-12-12T03:31:04.204Z,36.02
2023-12-12T03:33:30.734Z,36.10
2023-12-12T03:35:57.161Z,36.42
2023-12-12T03:38:25.984Z,36.17
2023-12-12T03:40:52.556Z,36.29
2023-12-12T03:43:19.043Z,36.18
2023-12-12T03:45:45.457Z,36.35
2023-12-12T03:48:12.587Z,36.31
2023-12-12T03:50:39.024Z,36.29
2023-12-12T03:53:05.386Z,36.24
2023-12-12T03:55:31.779Z,36.38
2023-12-12T03:57:58.189Z,36.48
2023-12-12T04:00:24.548Z,36.29
2023-12-12T04:02:51.488Z,36.40
2023-12-12T04:05:17.987Z,36.33
2023-12-12T04:07:44.438Z,36.29
2023-12-12T04:10:11.085Z,36.34
2023-12-12T04:12:37.805Z,36.37
2023-12-12T04:15:04.202Z,36.53
2023-12-12T04:17:31.192Z,36.65
2023-12-12T04:19:57.814Z,36.47
2023-12-12T04:22:24.216Z,36.58
2023-12-12T04:24:50.638Z,36.52
2023-12-12T04:27:17.164Z,36.76
2023-12-12T04:29:43.612Z,36.65
2023-12-12T04:32:09.963Z,36.72
2023-12-12T04:34:36.429Z,36.48
2023-12-12T04:37:02.833Z,36.48
2023-12-12T04:39:29.265Z,36.47
2023-12-12T04:41:55.629Z,36.65
2023-12-12T04:44:22.390Z,36.51
2023-12-12T04:46:48.826Z,36.60
2023-12-12T04:49:15.505Z,36.55
2023-12-12T04:51:41.989Z,36.50
2023-12-12T04:54:08.351Z,36.73
2023-12-12T04:56:34.795Z,36.60
2023-12-12T04:59:01.150Z,36.60
2023-12-12T05:01:28.317Z,36.74
2023-12-12T05:03:54.841Z,36.63
2023-12-12T05:06:22.088Z,36.72
2023-12-12T05:08:48.922Z,36.64
2023-12-12T05:11:15.668Z,36.73
2023-12-12T05:13:42.415Z,36.70
2023-12-12T05:16:20.577Z,36.68
2023-12-12T05:18:55.777Z,36.78
2023-12-12T05:21:23.024Z,36.77
2023-12-12T05:23:50.066Z,36.64
2023-12-12T05:26:16.840Z,36.55
2023-12-12T05:28:43.539Z,36.58
2023-12-12T05:31:10.044Z,36.53
2023-12-12T05:33:36.676Z,36.65
2023-12-12T05:36:03.369Z,36.62
2023-12-12T05:38:29.731Z,36.69
2023-12-12T05:40:57.246Z,36.79
2023-12-12T05:43:23.684Z,36.75
2023-12-12T05:45:50.313Z,36.66
2023-12-12T05:48:16.739Z,36.90
2023-12-12T05:50:43.567Z,36.65
2023-12-12T05:53:09.939Z,36.91
2023-12-12T05:55:36.333Z,36.69
2023-12-12T05:58:02.728Z,36.81
2023-12-12T06:00:29.131Z,36.75
2023-12-12T06:02:55.739Z,36.77
2023-12-12T06:05:22.150Z,36.79
2023-12-12T06:07:48.639Z,36.92
2023-12-12T06:10:15.075Z,36.69
2023-12-12T06:12:41.554Z,36.78
2023-12-12T06:15:09.002Z,36.79
2023-12-12T06:17:40.288Z,36.58
2023-12-12T06:20:08.140Z,36.57
2023-12-12T06:22:35.379Z,36.97
2023-12-12T06:25:03.124Z,36.93
2023-12-12T06:27:30.772Z,36.73
2023-12-12T06:29:57.349Z,36.65
2023-12-12T06:32:23.888Z,36.83
2023-12-12T06:34:50.434Z,36.81
2023-12-12T06:37:17.408Z,36.83
2023-12-12T06:39:43.859Z,36.84
2023-12-12T06:42:10.281Z,36.71
2023-12-12T06:44:37.936Z,36.69
2023-12-12T06:47:04.325Z,36.77
2023-12-12T06:49:30.917Z,36.89
2023-12-12T06:51:57.466Z,36.75
2023-12-12T06:54:23.942Z,36.77
2023-12-12T06:56:50.314Z,36.92
2023-12-12T06:59:16.681Z,36.63
2023-12-12T07:01:43.279Z,36.98
2023-12-12T07:04:10.231Z,36.78
2023-12-12T07:06:36.785Z,36.73
2023-12-12T07:09:03.840Z,36.81
2023-12-12T07:11:30.195Z,36.92
2023-12-12T07:13:58.753Z,36.84
2023-12-12T07:16:25.381Z,36.90
2023-12-12T07:18:51.925Z,36.80
2023-12-12T07:21:18.438Z,36.85
2023-12-12T07:23:44.831Z,36.89
2023-12-12T07:26:14.122Z,36.68
2023-12-12T07:28:40.570Z,36.84
2023-12-12T07:31:07.288Z,36.77
2023-12-12T07:33:33.792Z,36.67
2023-12-12T07:36:00.221Z,36.89
2023-12-12T07:38:26.673Z,36.81
2023-12-12T07:40:53.106Z,36.78
2023-12-12T07:43:19.523Z,36.81
2023-12-12T07:45:45.942Z,36.80
2023-12-12T07:48:12.428Z,36.76
2023-12-12T07:50:38.855Z,37.04
2023-12-12T07:53:05.893Z,36.89
2023-12-12T07:55:32.711Z,36.87
2023-12-12T07:57:59.125Z,36.83
2023-12-12T08:00:27.245Z,36.65
2023-12-12T08:02:53.594Z,37.08
2023-12-12T08:05:20.008Z,37.02
2023-12-12T08:07:46.412Z,37.02
2023-12-12T08:10:12.881Z,36.94
2023-12-12T08:12:39.278Z,36.94
2023-12-12T08:15:05.923Z,37.09
2023-12-12T08:17:32.758Z,36.97
2023-12-12T08:19:59.574Z,37.11
2023-12-12T08:22:26.691Z,36.97
2023-12-12T08:24:54.890Z,36.97
2023-12-12T08:27:21.277Z,37.24
2023-12-12T08:29:48.236Z,37.20
2023-12-12T08:32:14.597Z,37.32
2023-12-12T08:34:40.977Z,37.41
2023-12-12T08:37:07.407Z,37.17
2023-12-12T08:39:33.763Z,37.29
2023-12-12T08:42:00.193Z,37.27
2023-12-12T08:44:26.987Z,37.09
2023-12-12T08:46:53.394Z,36.98
2023-12-12T08:49:20.066Z,37.11
2023-12-12T08:51:46.664Z,37.11
2023-12-12T08:54:13.042Z,36.93
2023-12-12T08:56:39.425Z,37.07
2023-12-12T08:59:05.838Z,37.10
2023-12-12T09:01:32.346Z,37.28
2023-12-12T09:03:58.865Z,37.37
2023-12-12T09:06:25.280Z,37.14
2023-12-12T09:08:51.653Z,37.19
2023-12-12T09:11:18.011Z,37.19
2023-12-12T09:13:44.647Z,37.26
2023-12-12T09:16:11.241Z,37.18
2023-12-12T09:18:38.093Z,37.19
2023-12-12T09:21:04.834Z,37.16
2023-12-12T09:23:32.120Z,37.13
2023-12-12T09:25:58.513Z,37.00
2023-12-12T09:28:24.894Z,37.06
2023-12-12T09:30:51.346Z,36.88
2023-12-12T09:33:17.925Z,37.05
2023-12-12T09:35:44.647Z,37.09
2023-12-12T09:38:11.113Z,37.06
2023-12-12T09:40:37.757Z,37.02
2023-12-12T09:43:04.717Z,36.90
2023-12-12T09:45:32.197Z,36.95
2023-12-12T09:47:59.078Z,37.06
2023-12-12T09:50:25.504Z,37.01
2023-12-12T09:52:52.970Z,36.95
2023-12-12T09:55:20.382Z,36.89
2023-12-12T09:57:47.335Z,36.91
2023-12-12T10:00:15.564Z,37.03
2023-12-12T10:02:42.003Z,36.89
2023-12-12T10:05:11.522Z,36.98
2023-12-12T10:07:38.399Z,37.04
2023-12-12T10:10:08.447Z,36.97
2023-12-12T10:12:34.883Z,37.05
2023-12-12T10:15:01.864Z,36.90
2023-12-12T10:17:28.752Z,37.08
2023-12-12T10:19:58.569Z,36.86
2023-12-12T10:22:26.900Z,36.91
2023-12-12T10:24:54.128Z,36.93
2023-12-12T10:27:20.819Z,36.94
2023-12-12T10:29:47.183Z,37.07
2023-12-12T10:32:14.500Z,36.88
2023-12-12T10:34:47.471Z,37.11
2023-12-12T10:37:17.218Z,36.91
2023-12-12T10:39:45.004Z,36.90
2023-12-12T10:42:11.385Z,36.94
2023-12-12T10:44:38.432Z,37.01
2023-12-12T10:47:06.152Z,36.85
2023-12-12T10:49:33.403Z,36.93
2023-12-12T10:52:04.897Z,37.07
2023-12-12T10:54:32.886Z,36.82
2023-12-12T10:56:59.250Z,36.81
2023-12-12T10:59:57.328Z,36.89
2023-12-12T11:02:11.960Z,36.91
2023-12-12T11:04:38.352Z,36.99
2023-12-12T11:07:04.790Z,36.84
2023-12-12T11:09:31.177Z,36.88
2023-12-12T11:11:57.636Z,36.81
2023-12-12T11:14:24.770Z,36.96
2023-12-12T11:16:51.898Z,37.00
2023-12-12T11:19:18.607Z,36.87
2023-12-12T11:21:51.594Z,36.82
2023-12-12T11:24:18.817Z,37.05
2023-12-12T11:26:46.581Z,36.85
2023-12-12T11:29:15.043Z,36.93
2023-12-12T11:31:57.602Z,37.04
2023-12-12T11:34:24.367Z,36.84
2023-12-12T11:36:54.581Z,36.96
2023-12-12T11:39:23.765Z,36.83
2023-12-12T11:41:51.163Z,37.00
2023-12-12T11:44:18.842Z,36.99
2023-12-12T11:46:45.210Z,36.96
2023-12-12T11:49:18.273Z,36.99
2023-12-12T11:51:47.596Z,36.88
2023-12-12T11:54:21.820Z,36.82
2023-12-12T11:56:48.979Z,36.95
2023-12-12T11:59:24.511Z,37.00
2023-12-12T12:01:51.200Z,37.01
2023-12-12T12:04:17.769Z,37.08
2023-12-12T12:06:44.405Z,36.99
2023-12-12T12:09:11.772Z,37.00
2023-12-12T12:11:38.540Z,36.41
2023-12-12T12:14:04.925Z,36.41
2023-12-12T12:16:31.362Z,36.43
2023-12-12T12:18:57.849Z,36.24
2023-12-12T12:21:24.759Z,36.32
2023-12-12T12:23:51.141Z,36.50
2023-12-12T12:26:17.637Z,36.51
2023-12-12T12:28:44.020Z,36.34
2023-12-12T12:31:10.577Z,36.53
2023-12-12T12:33:37.341Z,36.53
2023-12-12T12:36:03.777Z,36.48
2023-12-12T12:38:30.435Z,36.46
2023-12-12T12:40:56.823Z,36.48
2023-12-12T12:43:26.014Z,36.27
2023-12-12T12:45:52.615Z,36.05
2023-12-12T12:48:20.962Z,36.50
2023-12-12T12:50:48.241Z,36.40
2023-12-12T12:53:14.763Z,35.98
2023-12-12T12:55:42.016Z,35.90
2023-12-12T12:58:10.879Z,35.78
2023-12-12T13:00:37.441Z,35.89
2023-12-12T13:03:06.607Z,36.01
2023-12-12T13:05:32.989Z,36.03
2023-12-12T13:07:59.387Z,35.91
2023-12-12T13:10:38.917Z,36.00
2023-12-12T13:13:10.533Z,36.16
2023-12-12T13:15:37.222Z,35.99
2023-12-12T13:18:03.774Z,36.39
2023-12-12T13:20:30.219Z,35.98
2023-12-12T13:22:56.668Z,36.22
2023-12-12T13:25:23.177Z,36.00
2023-12-12T13:27:49.559Z,36.07
2023-12-12T13:30:16.324Z,36.07
2023-12-12T13:32:43.600Z,36.16
2023-12-12T13:35:18.633Z,35.96
2023-12-12T13:37:54.238Z,36.14
2023-12-12T13:40:23.275Z,35.99
2023-12-12T13:42:50.777Z,36.06
2023-12-12T13:45:18.339Z,36.26
2023-12-12T13:47:44.925Z,36.18
2023-12-12T13:50:11.607Z,36.22
2023-12-12T13:52:38.247Z,36.43
2023-12-12T13:55:04.786Z,36.30
2023-12-12T13:57:31.544Z,36.37
2023-12-12T13:59:58.149Z,36.33
2023-12-12T14:02:30.251Z,36.19
2023-12-12T14:05:02.536Z,36.13
2023-12-12T14:07:29.105Z,36.19
2023-12-12T14:09:55.518Z,36.04
2023-12-12T14:12:22.138Z,36.02
2023-12-12T14:14:48.527Z,35.94
2023-12-12T14:17:15.563Z,35.91
2023-12-12T14:19:42.162Z,36.25
2023-12-12T14:22:10.010Z,36.34
2023-12-12T14:24:38.458Z,36.08
2023-12-12T14:27:07.003Z,36.25
2023-12-12T14:29:33.441Z,36.24
2023-12-12T14:31:59.904Z,36.40
2023-12-12T14:34:26.374Z,36.32
2023-12-12T14:36:52.955Z,36.29
2023-12-12T14:39:19.754Z,36.41
2023-12-12T14:41:46.147Z,36.22
2023-12-12T14:44:12.595Z,36.43
2023-12-12T14:46:39.009Z,36.32
2023-12-12T14:49:06.434Z,36.13
2023-12-12T14:51:32.921Z,36.33
2023-12-12T14:54:00.145Z,36.41
2023-12-12T14:56:26.597Z,36.49
2023-12-12T14:58:53.569Z,36.51
2023-12-12T15:01:20.176Z,36.47
2023-12-12T15:03:46.710Z,36.40
2023-12-12T15:06:13.244Z,36.30
2023-12-12T15:08:39.663Z,36.18
2023-12-12T15:11:06.131Z,35.98
2023-12-12T15:13:32.577Z,35.96
2023-12-12T15:15:59.050Z,36.06
2023-12-12T15:18:25.564Z,36.07
2023-12-12T15:20:52.119Z,35.96
2023-12-12T15:23:18.509Z,36.05
2023-12-12T15:25:45.528Z,36.12
2023-12-12T15:28:24.660Z,36.06
2023-12-12T15:30:54.133Z,36.15
2023-12-12T15:33:20.851Z,35.98
2023-12-12T15:35:47.414Z,36.48
2023-12-12T15:38:13.828Z,36.18
2023-12-12T15:40:40.352Z,36.25
2023-12-12T15:43:09.482Z,36.11
2023-12-12T15:45:36.459Z,36.07
2023-12-12T15:48:02.922Z,35.89
2023-12-12T15:50:29.416Z,36.04
2023-12-12T15:52:55.790Z,36.09
2023-12-12T15:55:22.240Z,35.95
2023-12-12T15:57:48.804Z,36.11
2023-12-12T16:00:17.997Z,35.59
2023-12-12T16:02:44.502Z,35.56
2023-12-12T16:05:11.114Z,35.99
2023-12-12T16:07:38.135Z,36.02
2023-12-12T16:10:08.408Z,35.97
2023-12-12T16:12:35.875Z,36.39
2023-12-12T16:15:05.927Z,35.94
2023-12-12T16:17:35.490Z,36.01
2023-12-12T16:20:05.149Z,35.84
2023-12-12T16:22:32.414Z,35.70
2023-12-12T16:24:58.968Z,35.76
2023-12-12T16:27:25.347Z,35.90
2023-12-12T16:29:51.833Z,36.13
2023-12-12T16:32:18.856Z,36.10
2023-12-12T16:34:45.418Z,36.41
2023-12-12T16:37:12.103Z,35.99
2023-12-12T16:39:38.492Z,36.01
2023-12-12T16:42:08.996Z,36.36
2023-12-12T16:44:35.344Z,36.64
2023-12-12T16:47:01.758Z,36.77
2023-12-12T16:49:28.335Z,36.92
2023-12-12T16:51:54.795Z,37.06
2023-12-12T16:54:21.155Z,37.08
2023-12-12T16:56:47.523Z,37.97
2023-12-12T16:59:14.464Z,38.24
2023-12-12T17:01:40.879Z,38.30
2023-12-12T17:04:07.729Z,37.88
2023-12-12T17:06:34.287Z,37.96
2023-12-12T17:09:00.657Z,37.42
2023-12-12T17:11:27.100Z,37.50
2023-12-12T17:13:54.348Z,37.37
2023-12-12T17:16:20.793Z,37.38
2023-12-12T17:18:47.303Z,37.38
2023-12-12T17:21:13.763Z,36.94
2023-12-12T17:23:40.144Z,36.83
2023-12-12T17:26:06.595Z,36.95
2023-12-12T17:28:33.094Z,36.76
2023-12-12T17:31:02.703Z,37.06
2023-12-12T17:33:29.331Z,36.99
2023-12-12T17:35:55.714Z,36.91
2023-12-12T17:38:22.082Z,36.83
2023-12-12T17:40:48.625Z,36.83
2023-12-12T17:43:15.070Z,36.81
2023-12-12T17:45:41.461Z,36.80
2023-12-12T17:48:07.869Z,36.74
2023-12-12T17:50:34.260Z,36.91
2023-12-12T17:53:04.962Z,37.17
2023-12-12T17:55:31.937Z,37.12
2023-12-12T17:57:58.333Z,37.16
2023-12-12T18:00:24.680Z,36.97
2023-12-12T18:02:51.095Z,36.89
2023-12-12T18:05:17.632Z,36.86
2023-12-12T18:07:44.227Z,36.81
2023-12-12T18:10:11.165Z,37.06
2023-12-12T18:12:37.557Z,36.87
2023-12-12T18:15:04.047Z,37.03
2023-12-12T18:17:30.646Z,37.01
2023-12-12T18:19:57.376Z,36.75
2023-12-12T18:22:23.897Z,37.72
2023-12-12T18:24:50.229Z,36.94
2023-12-12T18:27:16.599Z,37.56
2023-12-12T18:29:43.026Z,38.00
2023-12-12T18:32:09.432Z,38.15
2023-12-12T18:34:35.887Z,37.60
2023-12-12T18:37:02.306Z,38.18
2023-12-12T18:39:28.685Z,38.35
2023-12-12T18:41:56.751Z,38.06
2023-12-12T18:44:23.129Z,38.49
2023-12-12T18:46:49.691Z,38.20
2023-12-12T18:49:16.800Z,38.79
2023-12-12T18:51:43.759Z,38.45
2023-12-12T18:54:11.076Z,38.01
2023-12-12T18:56:38.788Z,38.16
2023-12-12T18:59:05.744Z,38.50
2023-12-12T19:01:32.232Z,38.29
2023-12-12T19:03:58.997Z,38.30
2023-12-12T19:06:25.346Z,38.54
2023-12-12T19:08:52.769Z,38.17
2023-12-12T19:11:23.209Z,38.47
2023-12-12T19:13:49.702Z,38.71
2023-12-12T19:16:17.264Z,38.37
2023-12-12T19:18:43.826Z,38.37
2023-12-12T19:21:11.366Z,38.75
2023-12-12T19:23:38.669Z,38.61
2023-12-12T19:26:05.115Z,38.61
2023-12-12T19:28:31.489Z,38.66
2023-12-12T19:30:57.999Z,38.23
2023-12-12T19:33:25.769Z,38.34
2023-12-12T19:35:52.208Z,38.25
2023-12-12T19:38:18.536Z,38.23
2023-12-12T19:40:44.914Z,38.35
2023-12-12T19:43:12.425Z,38.38
2023-12-12T19:45:38.907Z,38.62
2023-12-12T19:48:05.363Z,37.97
2023-12-12T19:50:31.832Z,38.33
2023-12-12T19:52:58.883Z,38.13
2023-12-12T19:55:25.652Z,38.04
2023-12-12T19:57:52.079Z,38.06
2023-12-12T20:00:18.490Z,38.00
2023-12-12T20:02:44.855Z,37.81
2023-12-12T20:05:11.271Z,37.83
2023-12-12T20:07:38.367Z,37.64
2023-12-12T20:10:05.925Z,37.80
2023-12-12T20:12:33.182Z,37.33
2023-12-12T20:14:59.553Z,37.42
2023-12-12T20:17:26.097Z,37.80
2023-12-12T20:19:52.521Z,37.70
2023-12-12T20:22:21.994Z,37.34
2023-12-12T20:24:48.781Z,37.32
2023-12-12T20:27:15.216Z,37.40
2023-12-12T20:29:41.586Z,37.47
2023-12-12T20:32:07.986Z,37.42
2023-12-12T20:34:34.391Z,37.33
2023-12-12T20:37:00.752Z,37.33
2023-12-12T20:39:27.146Z,37.38
2023-12-12T20:41:53.528Z,36.98
2023-12-12T20:44:19.870Z,37.13
2023-12-12T20:46:46.345Z,37.01
2023-12-12T20:49:13.085Z,37.02
2023-12-12T20:51:45.316Z,37.15
2023-12-12T20:54:12.418Z,36.86
2023-12-12T20:56:42.201Z,36.75
2023-12-12T20:59:08.704Z,37.18
2023-12-12T21:01:35.070Z,36.67
2023-12-12T21:04:01.473Z,36.69
2023-12-12T21:06:27.864Z,36.76
2023-12-12T21:08:54.257Z,37.08
2023-12-12T21:11:20.860Z,36.92
2023-12-12T21:13:47.287Z,36.98
2023-12-12T21:16:17.290Z,37.06
2023-12-12T21:18:43.909Z,36.97
2023-12-12T21:21:10.322Z,37.07
2023-12-12T21:23:36.688Z,36.93
2023-12-12T21:26:04.090Z,36.67
2023-12-12T21:28:31.475Z,36.92
2023-12-12T21:30:57.941Z,36.76
2023-12-12T21:33:24.425Z,36.76
2023-12-12T21:35:51.906Z,36.85
2023-12-12T21:38:22.360Z,37.01
2023-12-12T21:40:48.789Z,36.98
2023-12-12T21:43:15.323Z,36.95
2023-12-12T21:45:41.676Z,36.84
2023-12-12T21:48:09.195Z,37.02
2023-12-12T21:50:35.693Z,37.18
2023-12-12T21:53:02.193Z,36.84
2023-12-12T21:55:28.668Z,37.08
2023-12-12T21:57:55.041Z,36.95
2023-12-12T22:00:21.855Z,37.16
2023-12-12T22:02:48.222Z,37.16
2023-12-12T22:05:14.599Z,37.01
2023-12-12T22:07:41.025Z,36.80
2023-12-12T22:10:07.788Z,37.13
2023-12-12T22:12:34.263Z,36.76
2023-12-12T22:15:00.685Z,36.83
2023-12-12T22:17:27.166Z,36.97
2023-12-12T22:20:02.058Z,36.93
2023-12-12T22:22:32.992Z,36.83
2023-12-12T22:24:59.520Z,37.10
2023-12-12T22:27:25.966Z,37.15
2023-12-12T22:29:52.347Z,37.03
2023-12-12T22:32:18.737Z,36.93
2023-12-12T22:34:45.195Z,37.38
2023-12-12T22:37:11.870Z,36.86
2023-12-12T22:39:38.276Z,37.09
2023-12-12T22:42:04.749Z,37.04
2023-12-12T22:44:31.201Z,36.79
2023-12-12T22:46:57.632Z,36.81
2023-12-12T22:49:24.265Z,36.83
2023-12-12T22:51:50.721Z,36.87
2023-12-12T22:54:17.101Z,37.08
2023-12-12T22:56:43.484Z,37.07
2023-12-12T22:59:10.125Z,36.93
2023-12-12T23:01:41.438Z,36.80
2023-12-12T23:04:08.035Z,37.11
2023-12-12T23:06:34.461Z,36.76
2023-12-12T23:09:00.909Z,37.17
2023-12-12T23:11:27.361Z,36.83
2023-12-12T23:13:53.793Z,36.90
2023-12-12T23:16:20.346Z,37.27
2023-12-12T23:18:47.038Z,37.18
2023-12-12T23:21:13.434Z,36.96
2023-12-12T23:23:39.944Z,36.91
2023-12-12T23:26:06.292Z,36.89
2023-12-12T23:28:32.713Z,37.00
2023-12-12T23:31:05.770Z,36.94
2023-12-12T23:33:36.434Z,37.24
2023-12-12T23:36:03.847Z,36.83
2023-12-12T23:38:30.275Z,36.85
2023-12-12T23:40:56.784Z,37.13
2023-12-12T23:43:23.275Z,37.01
2023-12-12T23:45:51.013Z,36.96
2023-12-12T23:48:17.520Z,36.88
2023-12-12T23:50:43.951Z,37.19
2023-12-12T23:53:10.301Z,36.92
2023-12-12T23:55:36.811Z,37.19
2023-12-12T23:58:05.762Z,36.95
